createdAt,value
2023-08-11T00:02:54.547Z,101394.06
2023-08-11T00:07:56.803Z,101392.94
2023-08-11T00:12:58.712Z,101383.25
2023-08-11T00:18:03.575Z,101384.03
2023-08-11T00:23:05.776Z,101386.63
2023-08-11T00:28:07.771Z,101385.94
2023-08-11T00:33:09.793Z,101388.81
2023-08-11T00:38:11.902Z,101379.81
2023-08-11T00:43:14.022Z,101377.03
2023-08-11T00:48:16.573Z,101368.88
2023-08-11T00:53:18.691Z,101372.84
2023-08-11T00:58:21.565Z,101358.47
2023-08-11T01:03:23.568Z,101343.22
2023-08-11T01:08:40.128Z,101350.41
2023-08-11T01:13:54.012Z,101343.03
2023-08-11T01:18:56.670Z,101348.81
2023-08-11T01:23:59.468Z,101345.25
2023-08-11T01:29:01.571Z,101336.16
2023-08-11T01:34:04.634Z,101337.31
2023-08-11T01:39:06.593Z,101337.00
2023-08-11T01:44:09.607Z,101342.59
2023-08-11T01:49:14.146Z,101340.66
2023-08-11T01:54:16.390Z,101346.13
2023-08-11T01:59:19.069Z,101341.53
2023-08-11T02:04:21.080Z,101330.41
2023-08-11T02:09:23.161Z,101329.94
2023-08-11T02:14:25.117Z,101324.38
2023-08-11T02:19:27.206Z,101323.44
2023-08-11T02:24:29.415Z,101322.94
2023-08-11T02:29:31.584Z,101320.91
2023-08-11T02:34:33.826Z,101321.91
2023-08-11T02:39:38.345Z,101321.22
2023-08-11T02:44:42.430Z,101327.34
2023-08-11T02:49:44.375Z,101328.78
2023-08-11T02:54:46.411Z,101330.88
2023-08-11T02:59:50.697Z,101329.94
2023-08-11T03:04:52.720Z,101334.25
2023-08-11T03:09:54.936Z,101330.97
2023-08-11T03:14:57.210Z,101325.44
2023-08-11T03:20:00.046Z,101323.59
2023-08-11T03:25:02.141Z,101321.00
2023-08-11T03:30:04.656Z,101325.34
2023-08-11T03:35:07.724Z,101326.28
2023-08-11T03:40:14.522Z,101319.22
2023-08-11T03:45:16.975Z,101331.66
2023-08-11T03:50:19.180Z,101323.69
2023-08-11T03:55:21.292Z,101327.34
2023-08-11T04:00:23.238Z,101322.84
2023-08-11T04:05:25.754Z,101322.00
2023-08-11T04:10:27.693Z,101315.78
2023-08-11T04:15:29.740Z,101313.94
2023-08-11T04:20:32.016Z,101310.41
2023-08-11T04:25:34.148Z,101326.88
2023-08-11T04:30:36.410Z,101321.13
2023-08-11T04:35:39.573Z,101330.97
2023-08-11T04:40:41.520Z,101327.34
2023-08-11T04:45:43.506Z,101327.66
2023-08-11T04:50:52.386Z,101333.00
2023-08-11T04:55:54.315Z,101334.63
2023-08-11T05:00:56.358Z,101329.44
2023-08-11T05:05:58.370Z,101332.88
2023-08-11T05:11:00.541Z,101332.03
2023-08-11T05:16:02.677Z,101329.34
2023-08-11T05:21:07.169Z,101325.38
2023-08-11T05:26:09.098Z,101324.00
2023-08-11T05:31:11.065Z,101327.66
2023-08-11T05:36:13.205Z,101324.00
2023-08-11T05:41:15.195Z,101328.59
2023-08-11T05:46:17.173Z,101320.75
2023-08-11T05:51:19.268Z,101314.81
2023-08-11T05:56:21.201Z,101309.72
2023-08-11T06:01:23.182Z,101310.56
2023-08-11T06:06:26.586Z,101312.41
2023-08-11T06:11:28.617Z,101299.44
2023-08-11T06:16:30.834Z,101307.88
2023-08-11T06:21:32.825Z,101305.88
2023-08-11T06:26:34.854Z,101305.00
2023-08-11T06:31:37.032Z,101302.44
2023-08-11T06:36:39.324Z,101308.63
2023-08-11T06:41:41.354Z,101313.34
2023-08-11T06:46:43.918Z,101310.75
2023-08-11T06:51:45.861Z,101316.47
2023-08-11T06:56:47.791Z,101315.63
2023-08-11T07:01:49.734Z,101326.34
2023-08-11T07:06:51.782Z,101328.34
2023-08-11T07:11:53.630Z,101333.19
2023-08-11T07:16:55.596Z,101331.41
2023-08-11T07:21:57.650Z,101340.06
2023-08-11T07:26:59.660Z,101337.38
2023-08-11T07:32:01.710Z,101342.66
2023-08-11T07:37:04.265Z,101345.22
2023-08-11T07:42:06.589Z,101344.28
2023-08-11T07:47:08.794Z,101354.78
2023-08-11T07:52:11.006Z,101347.94
2023-08-11T07:57:13.160Z,101346.03
2023-08-11T08:02:15.176Z,101348.06
2023-08-11T08:07:17.276Z,101347.09
2023-08-11T08:12:19.228Z,101348.63
2023-08-11T08:17:21.498Z,101352.06
2023-08-11T08:22:23.456Z,101340.91
2023-08-11T08:27:25.807Z,101351.13
2023-08-11T08:32:29.015Z,101353.25
2023-08-11T08:37:33.028Z,101350.13
2023-08-11T08:42:35.866Z,101347.59
2023-08-11T08:47:39.538Z,101357.16
2023-08-11T08:52:41.916Z,101355.50
2023-08-11T08:57:44.496Z,101352.56
2023-08-11T09:02:47.272Z,101344.06
2023-08-11T09:07:49.313Z,101355.75
2023-08-11T09:12:51.818Z,101355.75
2023-08-11T09:17:53.970Z,101364.09
2023-08-11T09:22:56.036Z,101350.41
2023-08-11T09:27:59.384Z,101339.66
2023-08-11T09:33:02.967Z,101347.06
2023-08-11T09:38:05.681Z,101337.84
2023-08-11T09:43:07.635Z,101327.53
2023-08-11T09:48:10.008Z,101329.97
2023-08-11T09:53:12.847Z,101340.09
2023-08-11T09:58:15.720Z,101334.94
2023-08-11T10:03:27.540Z,101343.31
2023-08-11T10:08:31.001Z,101342.69
2023-08-11T10:13:34.314Z,101339.13
2023-08-11T10:18:37.523Z,101338.59
2023-08-11T10:23:39.501Z,101327.06
2023-08-11T10:28:42.238Z,101338.31
2023-08-11T10:33:51.389Z,101327.97
2023-08-11T10:39:06.363Z,101331.53
2023-08-11T10:44:08.337Z,101332.19
2023-08-11T10:49:10.592Z,101321.47
2023-08-11T10:54:23.734Z,101332.03
2023-08-11T10:59:28.431Z,101324.91
2023-08-11T11:04:33.050Z,101316.50
2023-08-11T11:09:35.242Z,101313.13
2023-08-11T11:14:37.803Z,101321.22
2023-08-11T11:19:40.017Z,101321.66
2023-08-11T11:24:43.242Z,101319.84
2023-08-11T11:29:45.428Z,101320.09
2023-08-11T11:34:47.678Z,101307.56
2023-08-11T11:39:49.797Z,101306.31
2023-08-11T11:44:51.926Z,101305.91
2023-08-11T11:50:00.645Z,101313.25
2023-08-11T11:55:02.699Z,101312.31
2023-08-11T12:00:09.062Z,101319.69
2023-08-11T12:05:11.255Z,101311.28
2023-08-11T12:10:13.136Z,101305.63
2023-08-11T12:15:19.331Z,101306.16
2023-08-11T12:20:23.532Z,101293.56
2023-08-11T12:25:25.760Z,101298.19
2023-08-11T12:30:27.730Z,101298.84
2023-08-11T12:35:30.028Z,101299.38
2023-08-11T12:40:32.015Z,101296.38
2023-08-11T12:45:34.026Z,101292.59
2023-08-11T12:50:37.593Z,101288.53
2023-08-11T12:55:39.726Z,101283.28
2023-08-11T13:00:41.744Z,101287.97
2023-08-11T13:05:43.796Z,101286.38
2023-08-11T13:10:45.874Z,101280.69
2023-08-11T13:15:49.079Z,101276.28
2023-08-11T13:20:52.385Z,101271.47
2023-08-11T13:25:54.520Z,101266.22
2023-08-11T13:30:56.706Z,101278.31
2023-08-11T13:35:58.762Z,101272.00
2023-08-11T13:41:01.700Z,101274.41
2023-08-11T13:46:04.340Z,101265.81
2023-08-11T13:51:06.696Z,101255.81
2023-08-11T13:56:10.366Z,101259.75
2023-08-11T14:01:12.276Z,101246.47
2023-08-11T14:06:14.247Z,101241.75
2023-08-11T14:11:17.091Z,101244.78
2023-08-11T14:16:19.690Z,101231.66
2023-08-11T14:21:21.823Z,101225.47
2023-08-11T14:26:23.967Z,101231.03
2023-08-11T14:31:25.887Z,101236.63
2023-08-11T14:36:28.020Z,101238.13
2023-08-11T14:41:30.008Z,101234.69
2023-08-11T14:46:32.103Z,101233.09
2023-08-11T14:51:34.025Z,101219.28
2023-08-11T14:56:35.932Z,101220.34
2023-08-11T15:01:37.796Z,101216.16
2023-08-11T15:06:39.814Z,101218.84
2023-08-11T15:11:42.041Z,101210.03
2023-08-11T15:16:44.345Z,101210.22
2023-08-11T15:21:46.615Z,101215.50
2023-08-11T15:26:48.780Z,101213.78
2023-08-11T15:31:53.544Z,101217.44
2023-08-11T15:36:56.475Z,101201.22
2023-08-11T15:41:58.512Z,101192.94
2023-08-11T15:47:00.488Z,101182.53
2023-08-11T15:52:02.366Z,101177.59
2023-08-11T15:57:04.793Z,101177.81
2023-08-11T16:02:10.591Z,101167.06
2023-08-11T16:07:13.467Z,101163.22
2023-08-11T16:12:15.545Z,101143.41
2023-08-11T16:17:17.583Z,101142.03
2023-08-11T16:22:19.598Z,101140.41
2023-08-11T16:27:22.431Z,101139.22
2023-08-11T16:32:24.440Z,101142.22
2023-08-11T16:37:26.550Z,101138.06
2023-08-11T16:42:28.617Z,101134.50
2023-08-11T16:47:30.733Z,101138.91
2023-08-11T16:52:32.816Z,101134.19
2023-08-11T16:57:35.529Z,101130.75
2023-08-11T17:02:37.547Z,101137.72
2023-08-11T17:07:39.950Z,101134.41
2023-08-11T17:12:42.256Z,101129.03
2023-08-11T17:17:44.476Z,101128.59
2023-08-11T17:22:46.628Z,101127.84
2023-08-11T17:27:48.797Z,101128.59
2023-08-11T17:32:50.771Z,101123.44
2023-08-11T17:37:52.965Z,101120.97
2023-08-11T17:42:55.003Z,101123.50
2023-08-11T17:47:57.172Z,101125.91
2023-08-11T17:52:59.446Z,101122.47
2023-08-11T17:58:01.660Z,101124.72
2023-08-11T18:03:03.839Z,101131.53
2023-08-11T18:08:06.646Z,101124.66
2023-08-11T18:13:08.767Z,101123.69
2023-08-11T18:18:10.788Z,101133.34
2023-08-11T18:23:15.902Z,101141.94
2023-08-11T18:28:18.003Z,101146.13
2023-08-11T18:33:19.929Z,101150.09
2023-08-11T18:38:22.320Z,101164.22
2023-08-11T18:43:24.422Z,101165.28
2023-08-11T18:48:26.499Z,101169.59
2023-08-11T18:53:29.047Z,101174.63
2023-08-11T18:58:31.174Z,101184.84
2023-08-11T19:03:34.023Z,101198.50
2023-08-11T19:08:36.308Z,101201.09
2023-08-11T19:13:38.361Z,101201.00
2023-08-11T19:18:41.294Z,101206.06
2023-08-11T19:23:43.497Z,101217.56
2023-08-11T19:28:46.554Z,101217.78
2023-08-11T19:33:48.543Z,101228.09
2023-08-11T19:38:50.997Z,101239.25
2023-08-11T19:43:53.034Z,101249.03
2023-08-11T19:48:55.011Z,101242.47
2023-08-11T19:53:57.102Z,101233.94
2023-08-11T19:58:59.112Z,101238.22
2023-08-11T20:04:01.182Z,101241.53
2023-08-11T20:09:03.489Z,101246.31
2023-08-11T20:14:05.672Z,101236.94
2023-08-11T20:19:07.599Z,101240.50
2023-08-11T20:24:09.937Z,101247.59
2023-08-11T20:29:12.807Z,101240.63
2023-08-11T20:34:14.977Z,101240.81
2023-08-11T20:39:17.383Z,101234.81
2023-08-11T20:44:19.213Z,101240.63
2023-08-11T20:49:21.314Z,101240.81
2023-08-11T20:54:24.312Z,101233.75
2023-08-11T20:59:26.463Z,101236.88
2023-08-11T21:04:28.940Z,101231.03
2023-08-11T21:09:31.054Z,101224.84
2023-08-11T21:14:33.122Z,101230.09
2023-08-11T21:19:35.124Z,101232.88
2023-08-11T21:24:36.975Z,101229.88
2023-08-11T21:29:38.849Z,101235.84
2023-08-11T21:34:40.773Z,101248.69
2023-08-11T21:39:42.777Z,101246.19
2023-08-11T21:44:44.812Z,101251.22
2023-08-11T21:49:46.953Z,101259.53
2023-08-11T21:54:48.980Z,101254.16
2023-08-11T21:59:51.203Z,101254.25
2023-08-11T22:04:53.193Z,101242.31
2023-08-11T22:09:55.327Z,101231.66
2023-08-11T22:14:57.248Z,101229.97
2023-08-11T22:19:59.260Z,101228.03
2023-08-11T22:25:03.498Z,101226.00
2023-08-11T22:30:07.035Z,101229.88
2023-08-11T22:35:09.389Z,101230.81
2023-08-11T22:40:11.574Z,101225.34
2023-08-11T22:45:13.548Z,101221.16
2023-08-11T22:50:15.736Z,101226.88
2023-08-11T22:55:17.878Z,101228.25
2023-08-11T23:00:21.133Z,101228.25
2023-08-11T23:05:23.283Z,101228.38
2023-08-11T23:10:25.255Z,101223.59
2023-08-11T23:15:28.311Z,101220.31
2023-08-11T23:20:30.507Z,101217.63
2023-08-11T23:25:32.304Z,101220.22
2023-08-11T23:30:34.332Z,101214.94
2023-08-11T23:35:40.040Z,101206.13
2023-08-11T23:40:42.166Z,101204.28
2023-08-11T23:45:44.220Z,101195.38
2023-08-11T23:50:46.233Z,101188.47
2023-08-11T23:55:48.262Z,101190.16
